sensor_id;sensor_type;location;lat;lon;timestamp;pressure;altitude;pressure_sealevel;temperature;humidity
35910;BME280;22004;49.120;-0.200;2023-12-28T00:01:07;101101.78;;;11.05;100.00
35910;BME280;22004;49.120;-0.200;2023-12-28T00:03:32;101100.28;;;11.03;100.00
35910;BME280;22004;49.120;-0.200;2023-12-28T00:05:57;101109.50;;;10.69;100.00
35910;BME280;22004;49.120;-0.200;2023-12-28T00:08:23;101105.34;;;10.98;100.00
35910;BME280;22004;49.120;-0.200;2023-12-28T00:10:48;101117.22;;;11.03;100.00
35910;BME280;22004;49.120;-0.200;2023-12-28T00:13:13;101106.47;;;11.11;100.00
35910;BME280;22004;49.120;-0.200;2023-12-28T00:15:39;101121.56;;;11.12;100.00
35910;BME280;22004;49.120;-0.200;2023-12-28T00:18:04;101132.25;;;10.90;100.00
35910;BME280;22004;49.120;-0.200;2023-12-28T00:20:29;101124.16;;;10.98;100.00
35910;BME280;22004;49.120;-0.200;2023-12-28T00:22:55;101115.94;;;10.91;100.00
35910;BME280;22004;49.120;-0.200;2023-12-28T00:25:20;101119.16;;;10.78;100.00
35910;BME280;22004;49.120;-0.200;2023-12-28T00:27:46;101126.69;;;10.91;100.00
35910;BME280;22004;49.120;-0.200;2023-12-28T00:30:11;101117.28;;;10.95;100.00
35910;BME280;22004;49.120;-0.200;2023-12-28T00:32:37;101120.56;;;10.74;100.00
35910;BME280;22004;49.120;-0.200;2023-12-28T00:35:02;101117.75;;;10.99;100.00
35910;BME280;22004;49.120;-0.200;2023-12-28T00:37:29;101123.38;;;10.81;100.00
35910;BME280;22004;49.120;-0.200;2023-12-28T00:39:54;101136.09;;;10.87;100.00
35910;BME280;22004;49.120;-0.200;2023-12-28T00:42:20;101141.34;;;10.72;100.00
35910;BME280;22004;49.120;-0.200;2023-12-28T00:44:45;101138.34;;;10.67;100.00
35910;BME280;22004;49.120;-0.200;2023-12-28T00:47:10;101148.38;;;10.73;100.00
35910;BME280;22004;49.120;-0.200;2023-12-28T00:49:36;101146.59;;;10.66;100.00
35910;BME280;22004;49.120;-0.200;2023-12-28T00:52:01;101148.44;;;10.65;100.00
35910;BME280;22004;49.120;-0.200;2023-12-28T00:54:27;101149.41;;;10.64;100.00
35910;BME280;22004;49.120;-0.200;2023-12-28T00:56:52;101153.66;;;10.42;100.00
35910;BME280;22004;49.120;-0.200;2023-12-28T00:59:18;101154.97;;;10.71;100.00
35910;BME280;22004;49.120;-0.200;2023-12-28T01:01:43;101156.03;;;11.01;100.00
35910;BME280;22004;49.120;-0.200;2023-12-28T01:04:09;101153.63;;;10.75;100.00
35910;BME280;22004;49.120;-0.200;2023-12-28T01:06:34;101159.97;;;10.74;100.00
35910;BME280;22004;49.120;-0.200;2023-12-28T01:08:59;101155.78;;;10.79;100.00
35910;BME280;22004;49.120;-0.200;2023-12-28T01:11:25;101152.66;;;11.07;100.00
35910;BME280;22004;49.120;-0.200;2023-12-28T01:13:51;101157.00;;;10.52;100.00
35910;BME280;22004;49.120;-0.200;2023-12-28T01:16:17;101160.09;;;10.88;100.00
35910;BME280;22004;49.120;-0.200;2023-12-28T01:18:42;101158.34;;;10.65;100.00
35910;BME280;22004;49.120;-0.200;2023-12-28T01:21:08;101165.06;;;10.36;100.00
35910;BME280;22004;49.120;-0.200;2023-12-28T01:23:33;101164.38;;;10.58;100.00
35910;BME280;22004;49.120;-0.200;2023-12-28T01:25:59;101169.88;;;10.81;100.00
35910;BME280;22004;49.120;-0.200;2023-12-28T01:28:25;101165.53;;;10.72;100.00
35910;BME280;22004;49.120;-0.200;2023-12-28T01:30:50;101168.78;;;11.07;100.00
35910;BME280;22004;49.120;-0.200;2023-12-28T01:33:16;101173.56;;;10.80;100.00
35910;BME280;22004;49.120;-0.200;2023-12-28T01:35:41;101185.16;;;10.81;100.00
35910;BME280;22004;49.120;-0.200;2023-12-28T01:38:07;101179.47;;;10.68;100.00
35910;BME280;22004;49.120;-0.200;2023-12-28T01:40:32;101176.13;;;10.57;100.00
35910;BME280;22004;49.120;-0.200;2023-12-28T01:42:58;101191.09;;;11.16;100.00
35910;BME280;22004;49.120;-0.200;2023-12-28T01:45:23;101196.28;;;11.17;100.00
35910;BME280;22004;49.120;-0.200;2023-12-28T01:47:48;101199.59;;;10.80;99.75
35910;BME280;22004;49.120;-0.200;2023-12-28T01:50:15;101200.44;;;10.72;100.00
35910;BME280;22004;49.120;-0.200;2023-12-28T01:52:41;101207.47;;;10.81;100.00
35910;BME280;22004;49.120;-0.200;2023-12-28T01:55:07;101196.97;;;11.11;100.00
35910;BME280;22004;49.120;-0.200;2023-12-28T01:57:34;101205.56;;;10.98;100.00
35910;BME280;22004;49.120;-0.200;2023-12-28T01:59:59;101211.81;;;10.91;100.00
35910;BME280;22004;49.120;-0.200;2023-12-28T02:02:27;101200.63;;;10.46;100.00
35910;BME280;22004;49.120;-0.200;2023-12-28T02:04:53;101211.81;;;10.82;100.00
35910;BME280;22004;49.120;-0.200;2023-12-28T02:07:20;101223.94;;;10.62;100.00
35910;BME280;22004;49.120;-0.200;2023-12-28T02:09:45;101218.63;;;11.18;100.00
35910;BME280;22004;49.120;-0.200;2023-12-28T02:12:11;101225.44;;;10.89;100.00
35910;BME280;22004;49.120;-0.200;2023-12-28T02:14:36;101217.84;;;10.93;100.00
35910;BME280;22004;49.120;-0.200;2023-12-28T02:17:15;101218.41;;;10.64;100.00
35910;BME280;22004;49.120;-0.200;2023-12-28T02:19:48;101229.16;;;10.47;100.00
35910;BME280;22004;49.120;-0.200;2023-12-28T02:22:15;101224.97;;;10.61;100.00
35910;BME280;22004;49.120;-0.200;2023-12-28T02:27:29;101231.66;;;10.32;100.00
35910;BME280;22004;49.120;-0.200;2023-12-28T02:29:55;101232.00;;;10.70;100.00
35910;BME280;22004;49.120;-0.200;2023-12-28T02:32:24;101223.94;;;10.70;100.00
35910;BME280;22004;49.120;-0.200;2023-12-28T02:34:57;101229.13;;;10.72;100.00
35910;BME280;22004;49.120;-0.200;2023-12-28T02:37:26;101222.94;;;10.71;100.00
35910;BME280;22004;49.120;-0.200;2023-12-28T02:39:53;101216.03;;;10.69;100.00
35910;BME280;22004;49.120;-0.200;2023-12-28T02:42:19;101221.06;;;10.64;100.00
35910;BME280;22004;49.120;-0.200;2023-12-28T02:44:44;101224.47;;;10.49;100.00
35910;BME280;22004;49.120;-0.200;2023-12-28T02:47:10;101218.41;;;10.55;100.00
35910;BME280;22004;49.120;-0.200;2023-12-28T02:49:35;101209.16;;;10.74;100.00
35910;BME280;22004;49.120;-0.200;2023-12-28T02:52:00;101208.50;;;10.48;100.00
35910;BME280;22004;49.120;-0.200;2023-12-28T02:54:26;101221.25;;;10.70;100.00
35910;BME280;22004;49.120;-0.200;2023-12-28T02:56:51;101221.75;;;10.66;100.00
35910;BME280;22004;49.120;-0.200;2023-12-28T02:59:16;101222.94;;;10.47;100.00
35910;BME280;22004;49.120;-0.200;2023-12-28T03:01:42;101220.91;;;10.73;100.00
35910;BME280;22004;49.120;-0.200;2023-12-28T03:04:07;101205.34;;;10.36;100.00
35910;BME280;22004;49.120;-0.200;2023-12-28T03:06:34;101216.09;;;10.44;100.00
35910;BME280;22004;49.120;-0.200;2023-12-28T03:09:00;101217.25;;;10.50;100.00
35910;BME280;22004;49.120;-0.200;2023-12-28T03:11:25;101217.91;;;10.52;100.00
35910;BME280;22004;49.120;-0.200;2023-12-28T03:13:51;101211.19;;;10.56;100.00
35910;BME280;22004;49.120;-0.200;2023-12-28T03:16:16;101211.38;;;10.30;100.00
35910;BME280;22004;49.120;-0.200;2023-12-28T03:18:41;101199.47;;;10.24;100.00
35910;BME280;22004;49.120;-0.200;2023-12-28T03:21:07;101206.97;;;10.21;100.00
35910;BME280;22004;49.120;-0.200;2023-12-28T03:23:32;101207.50;;;10.41;100.00
35910;BME280;22004;49.120;-0.200;2023-12-28T03:25:57;101205.50;;;10.43;100.00
35910;BME280;22004;49.120;-0.200;2023-12-28T03:28:23;101201.13;;;10.33;100.00
35910;BME280;22004;49.120;-0.200;2023-12-28T03:30:48;101203.47;;;10.61;100.00
35910;BME280;22004;49.120;-0.200;2023-12-28T03:33:13;101199.94;;;10.52;100.00
35910;BME280;22004;49.120;-0.200;2023-12-28T03:35:38;101198.97;;;10.45;100.00
35910;BME280;22004;49.120;-0.200;2023-12-28T03:38:04;101201.28;;;10.48;100.00
35910;BME280;22004;49.120;-0.200;2023-12-28T03:40:29;101205.84;;;10.31;100.00
35910;BME280;22004;49.120;-0.200;2023-12-28T03:42:54;101201.81;;;10.52;100.00
35910;BME280;22004;49.120;-0.200;2023-12-28T03:45:20;101198.28;;;10.43;100.00
35910;BME280;22004;49.120;-0.200;2023-12-28T03:47:45;101200.13;;;10.43;100.00
35910;BME280;22004;49.120;-0.200;2023-12-28T03:50:10;101204.09;;;10.14;100.00
35910;BME280;22004;49.120;-0.200;2023-12-28T03:52:36;101206.19;;;10.45;100.00
35910;BME280;22004;49.120;-0.200;2023-12-28T03:55:01;101208.69;;;10.54;100.00
35910;BME280;22004;49.120;-0.200;2023-12-28T03:57:26;101201.81;;;10.35;100.00
35910;BME280;22004;49.120;-0.200;2023-12-28T03:59:52;101197.44;;;10.43;100.00
35910;BME280;22004;49.120;-0.200;2023-12-28T04:02:19;101203.28;;;10.22;100.00
35910;BME280;22004;49.120;-0.200;2023-12-28T04:04:44;101203.13;;;10.48;100.00
35910;BME280;22004;49.120;-0.200;2023-12-28T04:07:09;101203.16;;;10.40;100.00
35910;BME280;22004;49.120;-0.200;2023-12-28T04:09:35;101204.13;;;10.22;100.00
35910;BME280;22004;49.120;-0.200;2023-12-28T04:12:00;101213.03;;;10.39;100.00
35910;BME280;22004;49.120;-0.200;2023-12-28T04:14:26;101212.88;;;10.24;100.00
35910;BME280;22004;49.120;-0.200;2023-12-28T04:16:51;101208.63;;;9.97;100.00
35910;BME280;22004;49.120;-0.200;2023-12-28T04:19:16;101203.25;;;10.14;100.00
35910;BME280;22004;49.120;-0.200;2023-12-28T04:21:45;101190.88;;;10.29;100.00
35910;BME280;22004;49.120;-0.200;2023-12-28T04:24:10;101191.91;;;10.36;100.00
35910;BME280;22004;49.120;-0.200;2023-12-28T04:26:36;101201.78;;;10.44;100.00
35910;BME280;22004;49.120;-0.200;2023-12-28T04:29:01;101205.00;;;10.31;100.00
35910;BME280;22004;49.120;-0.200;2023-12-28T04:31:27;101208.31;;;10.17;100.00
35910;BME280;22004;49.120;-0.200;2023-12-28T04:33:52;101214.53;;;10.33;100.00
35910;BME280;22004;49.120;-0.200;2023-12-28T04:36:17;101217.72;;;10.21;100.00
35910;BME280;22004;49.120;-0.200;2023-12-28T04:38:43;101208.84;;;10.28;100.00
35910;BME280;22004;49.120;-0.200;2023-12-28T04:41:09;101212.84;;;10.16;100.00
35910;BME280;22004;49.120;-0.200;2023-12-28T04:43:34;101212.50;;;10.11;100.00
35910;BME280;22004;49.120;-0.200;2023-12-28T04:46:04;101217.59;;;10.30;100.00
35910;BME280;22004;49.120;-0.200;2023-12-28T04:48:29;101207.81;;;10.21;100.00
35910;BME280;22004;49.120;-0.200;2023-12-28T04:50:55;101221.91;;;10.15;100.00
35910;BME280;22004;49.120;-0.200;2023-12-28T04:53:20;101213.72;;;10.25;100.00
35910;BME280;22004;49.120;-0.200;2023-12-28T04:55:45;101207.69;;;10.31;100.00
35910;BME280;22004;49.120;-0.200;2023-12-28T04:58:11;101208.13;;;10.18;99.80
35910;BME280;22004;49.120;-0.200;2023-12-28T05:00:37;101209.66;;;10.04;99.38
35910;BME280;22004;49.120;-0.200;2023-12-28T05:03:02;101200.97;;;10.35;100.00
35910;BME280;22004;49.120;-0.200;2023-12-28T05:05:28;101204.31;;;10.37;100.00
35910;BME280;22004;49.120;-0.200;2023-12-28T05:07:53;101213.00;;;10.06;99.01
35910;BME280;22004;49.120;-0.200;2023-12-28T05:10:18;101209.81;;;10.11;100.00
35910;BME280;22004;49.120;-0.200;2023-12-28T05:12:44;101204.28;;;10.13;100.00
35910;BME280;22004;49.120;-0.200;2023-12-28T05:15:09;101209.13;;;10.09;100.00
35910;BME280;22004;49.120;-0.200;2023-12-28T05:17:34;101208.78;;;9.96;100.00
35910;BME280;22004;49.120;-0.200;2023-12-28T05:20:00;101206.50;;;10.42;100.00
35910;BME280;22004;49.120;-0.200;2023-12-28T05:22:25;101205.13;;;10.13;100.00
35910;BME280;22004;49.120;-0.200;2023-12-28T05:24:50;101202.78;;;10.10;100.00
35910;BME280;22004;49.120;-0.200;2023-12-28T05:27:16;101200.66;;;10.30;100.00
35910;BME280;22004;49.120;-0.200;2023-12-28T05:29:41;101202.28;;;10.23;100.00
35910;BME280;22004;49.120;-0.200;2023-12-28T05:32:07;101210.31;;;10.23;100.00
35910;BME280;22004;49.120;-0.200;2023-12-28T05:34:32;101216.16;;;9.94;100.00
35910;BME280;22004;49.120;-0.200;2023-12-28T05:36:57;101215.81;;;9.97;100.00
35910;BME280;22004;49.120;-0.200;2023-12-28T05:39:22;101229.66;;;10.26;100.00
35910;BME280;22004;49.120;-0.200;2023-12-28T05:41:48;101220.88;;;10.08;100.00
35910;BME280;22004;49.120;-0.200;2023-12-28T05:44:15;101225.00;;;9.78;100.00
35910;BME280;22004;49.120;-0.200;2023-12-28T05:46:41;101230.44;;;10.19;100.00
35910;BME280;22004;49.120;-0.200;2023-12-28T05:49:06;101229.00;;;10.24;100.00
35910;BME280;22004;49.120;-0.200;2023-12-28T05:51:37;101223.94;;;10.38;100.00
35910;BME280;22004;49.120;-0.200;2023-12-28T05:54:04;101229.50;;;10.36;100.00
35910;BME280;22004;49.120;-0.200;2023-12-28T05:56:30;101229.81;;;10.66;100.00
35910;BME280;22004;49.120;-0.200;2023-12-28T05:58:55;101226.78;;;10.77;100.00
35910;BME280;22004;49.120;-0.200;2023-12-28T06:01:20;101220.09;;;10.48;100.00
35910;BME280;22004;49.120;-0.200;2023-12-28T06:03:46;101231.69;;;10.24;100.00
35910;BME280;22004;49.120;-0.200;2023-12-28T06:06:14;101227.81;;;10.35;100.00
35910;BME280;22004;49.120;-0.200;2023-12-28T06:08:39;101224.97;;;10.45;100.00
35910;BME280;22004;49.120;-0.200;2023-12-28T06:11:05;101232.16;;;10.36;100.00
35910;BME280;22004;49.120;-0.200;2023-12-28T06:13:30;101228.97;;;10.65;100.00
35910;BME280;22004;49.120;-0.200;2023-12-28T06:15:55;101230.41;;;11.08;100.00
35910;BME280;22004;49.120;-0.200;2023-12-28T06:18:21;101233.44;;;11.05;100.00
35910;BME280;22004;49.120;-0.200;2023-12-28T06:20:47;101230.75;;;11.05;100.00
35910;BME280;22004;49.120;-0.200;2023-12-28T06:23:12;101240.22;;;10.85;100.00
35910;BME280;22004;49.120;-0.200;2023-12-28T06:25:37;101239.69;;;10.90;100.00
35910;BME280;22004;49.120;-0.200;2023-12-28T06:28:03;101243.41;;;10.56;99.57
35910;BME280;22004;49.120;-0.200;2023-12-28T06:30:28;101247.03;;;11.12;100.00
35910;BME280;22004;49.120;-0.200;2023-12-28T06:32:54;101244.72;;;11.01;99.86
35910;BME280;22004;49.120;-0.200;2023-12-28T06:35:20;101246.44;;;10.69;99.71
35910;BME280;22004;49.120;-0.200;2023-12-28T06:37:45;101251.41;;;10.15;99.25
35910;BME280;22004;49.120;-0.200;2023-12-28T06:40:11;101256.31;;;10.69;100.00
35910;BME280;22004;49.120;-0.200;2023-12-28T06:42:36;101263.38;;;10.61;99.48
35910;BME280;22004;49.120;-0.200;2023-12-28T06:45:02;101260.19;;;10.25;100.00
35910;BME280;22004;49.120;-0.200;2023-12-28T06:47:27;101256.63;;;10.98;100.00
35910;BME280;22004;49.120;-0.200;2023-12-28T06:49:52;101261.03;;;10.42;97.87
35910;BME280;22004;49.120;-0.200;2023-12-28T06:52:18;101269.59;;;10.29;100.00
35910;BME280;22004;49.120;-0.200;2023-12-28T06:54:43;101263.22;;;10.55;100.00
35910;BME280;22004;49.120;-0.200;2023-12-28T06:57:08;101263.69;;;10.34;100.00
35910;BME280;22004;49.120;-0.200;2023-12-28T06:59:34;101264.69;;;10.33;99.81
35910;BME280;22004;49.120;-0.200;2023-12-28T07:01:59;101276.47;;;10.56;100.00
35910;BME280;22004;49.120;-0.200;2023-12-28T07:04:24;101274.28;;;10.52;100.00
35910;BME280;22004;49.120;-0.200;2023-12-28T07:06:54;101269.84;;;10.18;100.00
35910;BME280;22004;49.120;-0.200;2023-12-28T07:09:19;101265.22;;;10.37;100.00
35910;BME280;22004;49.120;-0.200;2023-12-28T07:11:45;101271.44;;;10.45;100.00
35910;BME280;22004;49.120;-0.200;2023-12-28T07:14:10;101260.69;;;10.53;100.00
35910;BME280;22004;49.120;-0.200;2023-12-28T07:16:35;101268.56;;;10.47;100.00
35910;BME280;22004;49.120;-0.200;2023-12-28T07:19:00;101265.22;;;10.85;100.00
35910;BME280;22004;49.120;-0.200;2023-12-28T07:21:26;101269.91;;;10.43;99.94
35910;BME280;22004;49.120;-0.200;2023-12-28T07:23:51;101268.22;;;10.82;100.00
35910;BME280;22004;49.120;-0.200;2023-12-28T07:26:16;101270.84;;;10.17;100.00
35910;BME280;22004;49.120;-0.200;2023-12-28T07:28:42;101280.16;;;9.80;100.00
35910;BME280;22004;49.120;-0.200;2023-12-28T07:31:10;101268.75;;;10.70;100.00
35910;BME280;22004;49.120;-0.200;2023-12-28T07:33:35;101276.94;;;10.44;99.94
35910;BME280;22004;49.120;-0.200;2023-12-28T07:36:01;101277.97;;;10.59;100.00
35910;BME280;22004;49.120;-0.200;2023-12-28T07:38:28;101272.41;;;10.28;99.72
35910;BME280;22004;49.120;-0.200;2023-12-28T07:40:54;101286.03;;;10.43;100.00
35910;BME280;22004;49.120;-0.200;2023-12-28T07:43:19;101284.38;;;9.99;100.00
35910;BME280;22004;49.120;-0.200;2023-12-28T07:45:44;101281.06;;;10.14;100.00
35910;BME280;22004;49.120;-0.200;2023-12-28T07:48:10;101286.22;;;10.49;100.00
35910;BME280;22004;49.120;-0.200;2023-12-28T07:50:35;101283.00;;;10.29;100.00
35910;BME280;22004;49.120;-0.200;2023-12-28T07:53:00;101279.97;;;10.24;100.00
35910;BME280;22004;49.120;-0.200;2023-12-28T07:55:26;101289.16;;;10.22;100.00
35910;BME280;22004;49.120;-0.200;2023-12-28T07:57:51;101280.09;;;10.23;100.00
35910;BME280;22004;49.120;-0.200;2023-12-28T08:00:17;101292.81;;;10.04;100.00
35910;BME280;22004;49.120;-0.200;2023-12-28T08:02:42;101288.50;;;10.28;100.00
35910;BME280;22004;49.120;-0.200;2023-12-28T08:05:08;101285.44;;;10.23;100.00
35910;BME280;22004;49.120;-0.200;2023-12-28T08:07:34;101286.22;;;9.99;100.00
35910;BME280;22004;49.120;-0.200;2023-12-28T08:10:00;101287.06;;;9.91;100.00
35910;BME280;22004;49.120;-0.200;2023-12-28T08:12:25;101283.84;;;10.30;100.00
35910;BME280;22004;49.120;-0.200;2023-12-28T08:14:53;101294.22;;;10.33;100.00
35910;BME280;22004;49.120;-0.200;2023-12-28T08:17:19;101294.75;;;10.37;100.00
35910;BME280;22004;49.120;-0.200;2023-12-28T08:19:44;101296.19;;;10.23;100.00
35910;BME280;22004;49.120;-0.200;2023-12-28T08:22:09;101299.25;;;10.28;100.00
35910;BME280;22004;49.120;-0.200;2023-12-28T08:24:35;101290.13;;;10.13;100.00
35910;BME280;22004;49.120;-0.200;2023-12-28T08:27:01;101300.44;;;10.25;100.00
35910;BME280;22004;49.120;-0.200;2023-12-28T08:29:28;101299.69;;;10.07;100.00
35910;BME280;22004;49.120;-0.200;2023-12-28T08:31:53;101286.53;;;10.30;100.00
35910;BME280;22004;49.120;-0.200;2023-12-28T08:34:19;101286.69;;;10.53;100.00
35910;BME280;22004;49.120;-0.200;2023-12-28T08:36:44;101290.69;;;10.32;99.25
35910;BME280;22004;49.120;-0.200;2023-12-28T08:39:09;101291.38;;;10.43;100.00
35910;BME280;22004;49.120;-0.200;2023-12-28T08:41:35;101278.97;;;10.42;100.00
35910;BME280;22004;49.120;-0.200;2023-12-28T08:44:00;101284.69;;;10.30;100.00
35910;BME280;22004;49.120;-0.200;2023-12-28T08:46:25;101287.88;;;10.50;100.00
35910;BME280;22004;49.120;-0.200;2023-12-28T08:48:51;101286.69;;;10.37;99.21
35910;BME280;22004;49.120;-0.200;2023-12-28T08:51:16;101277.97;;;10.83;100.00
35910;BME280;22004;49.120;-0.200;2023-12-28T08:53:42;101283.34;;;10.34;100.00
35910;BME280;22004;49.120;-0.200;2023-12-28T08:56:16;101277.81;;;10.44;100.00
35910;BME280;22004;49.120;-0.200;2023-12-28T08:58:43;101290.88;;;10.39;100.00
35910;BME280;22004;49.120;-0.200;2023-12-28T09:01:08;101280.31;;;10.54;100.00
35910;BME280;22004;49.120;-0.200;2023-12-28T09:03:33;101285.34;;;10.49;100.00
35910;BME280;22004;49.120;-0.200;2023-12-28T09:05:59;101287.38;;;10.55;100.00
35910;BME280;22004;49.120;-0.200;2023-12-28T09:08:25;101289.22;;;10.71;100.00
35910;BME280;22004;49.120;-0.200;2023-12-28T09:10:50;101291.06;;;10.46;99.21
35910;BME280;22004;49.120;-0.200;2023-12-28T09:13:16;101293.22;;;10.42;99.98
35910;BME280;22004;49.120;-0.200;2023-12-28T09:15:45;101296.25;;;10.88;100.00
35910;BME280;22004;49.120;-0.200;2023-12-28T09:18:11;101299.78;;;11.05;98.95
35910;BME280;22004;49.120;-0.200;2023-12-28T09:20:36;101299.63;;;10.90;98.03
35910;BME280;22004;49.120;-0.200;2023-12-28T09:23:01;101303.78;;;11.17;97.23
35910;BME280;22004;49.120;-0.200;2023-12-28T09:25:27;101307.31;;;11.18;97.89
35910;BME280;22004;49.120;-0.200;2023-12-28T09:27:52;101304.47;;;11.11;98.16
35910;BME280;22004;49.120;-0.200;2023-12-28T09:30:18;101314.34;;;11.19;97.41
35910;BME280;22004;49.120;-0.200;2023-12-28T09:32:44;101310.19;;;11.16;96.98
35910;BME280;22004;49.120;-0.200;2023-12-28T09:35:09;101317.06;;;11.02;97.33
35910;BME280;22004;49.120;-0.200;2023-12-28T09:37:34;101304.47;;;11.11;97.47
35910;BME280;22004;49.120;-0.200;2023-12-28T09:40:00;101310.81;;;11.18;98.67
35910;BME280;22004;49.120;-0.200;2023-12-28T09:42:26;101315.38;;;11.18;97.57
35910;BME280;22004;49.120;-0.200;2023-12-28T09:44:54;101315.50;;;11.32;97.35
35910;BME280;22004;49.120;-0.200;2023-12-28T09:47:20;101313.88;;;11.15;96.90
35910;BME280;22004;49.120;-0.200;2023-12-28T09:49:46;101315.91;;;10.97;97.93
35910;BME280;22004;49.120;-0.200;2023-12-28T09:52:12;101317.03;;;11.19;97.85
35910;BME280;22004;49.120;-0.200;2023-12-28T09:54:37;101315.22;;;11.11;96.82
35910;BME280;22004;49.120;-0.200;2023-12-28T09:57:03;101319.72;;;11.35;97.09
35910;BME280;22004;49.120;-0.200;2023-12-28T09:59:29;101319.06;;;11.17;98.00
35910;BME280;22004;49.120;-0.200;2023-12-28T10:01:56;101321.06;;;11.23;97.57
35910;BME280;22004;49.120;-0.200;2023-12-28T10:04:22;101320.78;;;11.09;98.17
35910;BME280;22004;49.120;-0.200;2023-12-28T10:06:48;101327.78;;;11.19;98.99
35910;BME280;22004;49.120;-0.200;2023-12-28T10:09:13;101329.81;;;11.17;99.09
35910;BME280;22004;49.120;-0.200;2023-12-28T10:11:39;101329.97;;;11.31;98.39
35910;BME280;22004;49.120;-0.200;2023-12-28T10:14:05;101328.97;;;11.24;96.81
35910;BME280;22004;49.120;-0.200;2023-12-28T10:16:32;101325.78;;;11.29;96.40
35910;BME280;22004;49.120;-0.200;2023-12-28T10:18:57;101330.97;;;11.30;95.77
35910;BME280;22004;49.120;-0.200;2023-12-28T10:21:23;101326.41;;;11.47;95.61
35910;BME280;22004;49.120;-0.200;2023-12-28T10:23:48;101329.91;;;11.48;96.23
35910;BME280;22004;49.120;-0.200;2023-12-28T10:26:14;101318.53;;;11.37;95.45
35910;BME280;22004;49.120;-0.200;2023-12-28T10:28:39;101320.50;;;11.60;96.37
35910;BME280;22004;49.120;-0.200;2023-12-28T10:31:05;101322.22;;;11.45;95.92
35910;BME280;22004;49.120;-0.200;2023-12-28T10:33:37;101322.69;;;11.48;96.31
35910;BME280;22004;49.120;-0.200;2023-12-28T10:36:06;101330.28;;;11.36;94.56
35910;BME280;22004;49.120;-0.200;2023-12-28T10:38:36;101316.53;;;11.23;94.99
35910;BME280;22004;49.120;-0.200;2023-12-28T10:41:04;101317.16;;;11.50;94.73
35910;BME280;22004;49.120;-0.200;2023-12-28T10:46:32;101308.78;;;11.45;94.47
35910;BME280;22004;49.120;-0.200;2023-12-28T10:49:00;101317.28;;;11.56;95.56
35910;BME280;22004;49.120;-0.200;2023-12-28T10:51:30;101318.00;;;11.50;94.28
35910;BME280;22004;49.120;-0.200;2023-12-28T10:56:59;101302.94;;;11.72;94.15
35910;BME280;22004;49.120;-0.200;2023-12-28T11:02:10;101309.53;;;11.70;93.47
35910;BME280;22004;49.120;-0.200;2023-12-28T11:04:45;101298.56;;;11.79;93.45
35910;BME280;22004;49.120;-0.200;2023-12-28T11:07:13;101304.81;;;11.72;93.30
35910;BME280;22004;49.120;-0.200;2023-12-28T11:09:41;101300.78;;;11.68;92.13
35910;BME280;22004;49.120;-0.200;2023-12-28T11:12:07;101291.66;;;11.77;91.49
35910;BME280;22004;49.120;-0.200;2023-12-28T11:14:34;101298.69;;;11.94;91.88
35910;BME280;22004;49.120;-0.200;2023-12-28T11:17:00;101290.25;;;11.97;92.40
35910;BME280;22004;49.120;-0.200;2023-12-28T11:19:27;101302.38;;;11.93;91.00
35910;BME280;22004;49.120;-0.200;2023-12-28T11:21:54;101292.31;;;11.87;91.55
35910;BME280;22004;49.120;-0.200;2023-12-28T11:24:21;101301.25;;;11.79;91.27
35910;BME280;22004;49.120;-0.200;2023-12-28T11:26:52;101303.31;;;11.69;91.37
35910;BME280;22004;49.120;-0.200;2023-12-28T11:29:20;101307.69;;;11.70;91.65
35910;BME280;22004;49.120;-0.200;2023-12-28T11:31:53;101301.94;;;11.73;91.29
35910;BME280;22004;49.120;-0.200;2023-12-28T11:34:24;101295.56;;;11.74;91.70
35910;BME280;22004;49.120;-0.200;2023-12-28T11:36:52;101296.22;;;11.68;90.89
35910;BME280;22004;49.120;-0.200;2023-12-28T11:39:39;101298.66;;;11.47;89.89
35910;BME280;22004;49.120;-0.200;2023-12-28T11:42:09;101294.75;;;11.57;91.50
35910;BME280;22004;49.120;-0.200;2023-12-28T11:44:39;101288.06;;;11.53;90.33
35910;BME280;22004;49.120;-0.200;2023-12-28T11:47:24;101288.75;;;11.55;90.71
35910;BME280;22004;49.120;-0.200;2023-12-28T11:49:50;101290.91;;;11.60;92.01
35910;BME280;22004;49.120;-0.200;2023-12-28T11:52:26;101284.69;;;11.59;92.32
35910;BME280;22004;49.120;-0.200;2023-12-28T11:54:52;101288.06;;;11.53;90.26
35910;BME280;22004;49.120;-0.200;2023-12-28T11:57:17;101276.25;;;11.62;91.11
35910;BME280;22004;49.120;-0.200;2023-12-28T11:59:43;101264.66;;;11.70;91.19
35910;BME280;22004;49.120;-0.200;2023-12-28T12:02:09;101276.72;;;11.74;92.06
35910;BME280;22004;49.120;-0.200;2023-12-28T12:04:35;101281.16;;;11.59;91.24
35910;BME280;22004;49.120;-0.200;2023-12-28T12:07:04;101258.31;;;11.55;89.92
35910;BME280;22004;49.120;-0.200;2023-12-28T12:09:30;101265.16;;;11.65;90.17
35910;BME280;22004;49.120;-0.200;2023-12-28T12:12:03;101258.63;;;11.60;91.24
35910;BME280;22004;49.120;-0.200;2023-12-28T12:14:29;101252.88;;;11.63;90.70
35910;BME280;22004;49.120;-0.200;2023-12-28T12:16:56;101257.88;;;11.82;91.19
35910;BME280;22004;49.120;-0.200;2023-12-28T12:19:24;101252.03;;;11.71;89.34
35910;BME280;22004;49.120;-0.200;2023-12-28T12:21:54;101247.88;;;11.60;89.66
35910;BME280;22004;49.120;-0.200;2023-12-28T12:24:20;101245.84;;;11.62;89.83
35910;BME280;22004;49.120;-0.200;2023-12-28T12:26:46;101242.31;;;11.61;89.90
35910;BME280;22004;49.120;-0.200;2023-12-28T12:29:13;101231.78;;;11.52;91.45
35910;BME280;22004;49.120;-0.200;2023-12-28T12:31:40;101224.50;;;11.60;92.43
35910;BME280;22004;49.120;-0.200;2023-12-28T12:34:07;101223.41;;;11.38;90.95
35910;BME280;22004;49.120;-0.200;2023-12-28T12:36:33;101222.75;;;11.36;90.90
35910;BME280;22004;49.120;-0.200;2023-12-28T12:38:58;101226.69;;;11.57;91.40